Time;durP1;ratioP1;P1;durP2;ratioP2;P2;SDS_P1;SDS_P2;PMS_P1;PMS_P2;Temp;Humidity;BMP_temperature;BMP_pressure;BME280_temperature;BME280_humidity;BME280_pressure;Samples;Min_cycle;Max_cycle;Signal;HPM_P1;HPM_P2
2023/01/25 00:02:14;;;;;;;21.88;11.45;;;;;;;-140.72;100.00;53334.50;6272579;22;20410;-69
2023/01/25 00:04:39;;;;;;;18.55;10.70;;;;;;;-140.72;100.00;53340.59;6272498;22;20000;-67
2023/01/25 00:07:04;;;;;;;14.60;9.70;;;;;;;-140.72;100.00;53334.50;6272072;22;19999;-69
2023/01/25 00:09:30;;;;;;;18.35;11.13;;;;;;;-140.72;100.00;53332.47;6272980;22;20000;-68
2023/01/25 00:11:57;;;;;;;20.67;11.75;;;;;;;-140.72;100.00;53312.19;6272964;22;20000;-68
2023/01/25 00:14:23;;;;;;;19.75;12.75;;;;;;;-140.72;100.00;53352.78;6272195;22;20003;-68
2023/01/25 00:16:48;;;;;;;20.23;11.95;;;;;;;-140.72;100.00;53373.06;6273116;22;20027;-68
2023/01/25 00:19:14;;;;;;;16.50;10.88;;;;;;;-140.72;100.00;53314.22;6273017;22;20006;-67
2023/01/25 00:21:39;;;;;;;21.58;13.32;;;;;;;-140.72;100.00;53324.38;6270971;22;20046;-68
2023/01/25 00:24:05;;;;;;;19.17;13.18;;;;;;;-140.72;100.00;53338.56;6272595;22;20011;-68
2023/01/25 00:26:34;;;;;;;25.35;12.23;;;;;;;-140.72;100.00;53328.41;6272851;22;19996;-67
2023/01/25 00:29:00;;;;;;;17.53;11.63;;;;;;;-140.72;100.00;53354.81;6272383;22;20094;-68
2023/01/25 00:31:34;;;;;;;18.10;9.98;;;;;;;-140.72;100.00;53350.75;6272370;22;20034;-68
2023/01/25 00:34:06;;;;;;;19.55;11.38;;;;;;;-140.72;100.00;53338.56;6272383;22;20413;-68
2023/01/25 00:36:40;;;;;;;19.33;12.32;;;;;;;-140.72;100.00;53344.66;6271852;22;20449;-68
2023/01/25 00:39:09;;;;;;;17.92;11.60;;;;;;;-140.72;100.00;53312.19;6272118;22;20000;-68
2023/01/25 00:41:34;;;;;;;20.98;11.65;;;;;;;-140.72;100.00;53352.78;6272519;22;20000;-68
2023/01/25 00:44:02;;;;;;;20.25;11.65;;;;;;;-140.72;100.00;53340.59;6272176;22;20429;-68
2023/01/25 00:46:28;;;;;;;26.15;12.52;;;;;;;-140.72;100.00;53352.78;6272275;22;20003;-68
2023/01/25 00:48:54;;;;;;;20.08;12.73;;;;;;;-140.72;100.00;53334.50;6272544;22;20010;-69
2023/01/25 00:51:19;;;;;;;19.60;11.75;;;;;;;-140.72;100.00;53346.69;6271864;22;20027;-69
2023/01/25 00:53:45;;;;;;;23.02;13.88;;;;;;;-140.72;100.00;53340.59;6272211;22;20014;-68
2023/01/25 00:56:10;;;;;;;21.88;12.40;;;;;;;-140.72;100.00;53340.59;6272057;22;20008;-68
2023/01/25 00:58:36;;;;;;;21.48;13.85;;;;;;;-140.72;100.00;53356.84;6271533;22;20018;-68
2023/01/25 01:01:01;;;;;;;19.80;11.35;;;;;;;-140.72;100.00;53338.56;6272894;22;20000;-68
2023/01/25 01:03:26;;;;;;;20.38;12.70;;;;;;;-140.72;100.00;53328.41;6270817;22;20406;-68
2023/01/25 01:06:18;;;;;;;23.02;12.20;;;;;;;-140.72;100.00;53362.94;6273186;22;20018;-68
2023/01/25 01:08:44;;;;;;;21.48;12.55;;;;;;;-140.72;100.00;53364.97;6263935;22;20062;-68
2023/01/25 01:11:11;;;;;;;18.58;10.93;;;;;;;-140.72;100.00;53328.41;6271994;22;20074;-68
2023/01/25 01:13:37;;;;;;;18.75;10.77;;;;;;;-140.72;100.00;53354.81;6272597;22;20008;-67
2023/01/25 01:16:07;;;;;;;27.17;12.90;;;;;;;-140.72;100.00;53348.72;6273122;22;20023;-68
2023/01/25 01:18:45;;;;;;;25.10;14.45;;;;;;;-140.72;100.00;53322.34;6271669;22;20317;-69
2023/01/25 01:21:12;;;;;;;20.52;10.13;;;;;;;-140.72;100.00;53371.03;6272781;22;20083;-68
2023/01/25 01:23:38;;;;;;;20.77;11.27;;;;;;;-140.72;100.00;53369.00;6272238;22;20050;-68
2023/01/25 01:26:06;;;;;;;17.95;11.15;;;;;;;-140.72;100.00;53362.94;6269879;22;20008;-68
2023/01/25 01:28:34;;;;;;;21.92;12.38;;;;;;;-140.72;100.00;53391.34;6272525;22;19995;-68
2023/01/25 01:31:04;;;;;;;24.70;11.63;;;;;;;-140.72;100.00;53352.78;6272306;22;20014;-69
2023/01/25 01:33:29;;;;;;;20.10;10.85;;;;;;;-140.72;100.00;53352.78;6271733;22;19999;-67
2023/01/25 01:35:55;;;;;;;22.45;13.25;;;;;;;-140.72;100.00;53373.06;6272930;22;20299;-69
2023/01/25 01:38:20;;;;;;;22.02;11.68;;;;;;;-140.72;100.00;53358.88;6271677;22;20050;-68
2023/01/25 01:40:48;;;;;;;22.08;12.60;;;;;;;-140.72;100.00;53326.41;6271720;22;20000;-68
2023/01/25 01:43:31;;;;;;;23.85;13.65;;;;;;;-140.72;100.00;53320.31;6272226;22;20000;-68
2023/01/25 01:46:08;;;;;;;22.88;11.70;;;;;;;-140.72;100.00;53328.41;6272039;22;20495;-68
2023/01/25 01:48:48;;;;;;;21.35;11.38;;;;;;;-140.72;100.00;53373.06;6271677;22;19996;-68
2023/01/25 01:51:25;;;;;;;23.45;11.63;;;;;;;-140.72;100.00;53352.78;6274827;22;19999;-68
2023/01/25 01:54:01;;;;;;;18.25;10.52;;;;;;;-140.72;100.00;53350.75;6273318;22;20014;-68
2023/01/25 01:56:34;;;;;;;17.98;10.98;;;;;;;-140.72;100.00;53377.13;6274258;22;20034;-68
2023/01/25 01:59:00;;;;;;;20.60;11.80;;;;;;;-140.72;100.00;53358.88;6274333;22;20437;-68
2023/01/25 02:01:26;;;;;;;20.55;12.77;;;;;;;-140.72;100.00;53346.69;6273563;22;20003;-69
2023/01/25 02:03:52;;;;;;;26.05;13.77;;;;;;;-140.72;100.00;53340.59;6274427;22;20006;-68
2023/01/25 02:06:23;;;;;;;21.50;12.00;;;;;;;-140.72;100.00;53364.97;6275002;22;20018;-68
2023/01/25 02:08:49;;;;;;;19.98;11.43;;;;;;;-140.72;100.00;53328.41;6273850;22;20422;-68
2023/01/25 02:11:15;;;;;;;24.70;14.30;;;;;;;-140.72;100.00;53358.88;6273830;22;20026;-68
2023/01/25 02:13:40;;;;;;;24.38;13.65;;;;;;;-140.72;100.00;53344.66;6273174;22;19995;-68
2023/01/25 02:16:12;;;;;;;20.75;13.20;;;;;;;-140.72;100.00;53308.13;6274497;22;20323;-69
2023/01/25 02:18:38;;;;;;;26.63;11.57;;;;;;;-140.72;100.00;53340.59;6274191;22;20414;-68
2023/01/25 02:21:03;;;;;;;21.15;10.80;;;;;;;-140.72;100.00;53344.66;6272890;22;20004;-67
2023/01/25 02:23:39;;;;;;;25.73;14.50;;;;;;;-140.72;100.00;53352.78;6274260;22;20057;-69
2023/01/25 02:26:06;;;;;;;24.35;12.70;;;;;;;-140.72;100.00;53364.97;6273151;22;20004;-68
2023/01/25 02:29:02;;;;;;;24.45;12.57;;;;;;;-140.72;100.00;53348.72;6272594;22;20054;-68
2023/01/25 02:31:27;;;;;;;20.90;11.23;;;;;;;-140.72;100.00;53342.63;6273293;22;20303;-69
2023/01/25 02:33:53;;;;;;;20.67;11.88;;;;;;;-140.72;100.00;53358.88;6273878;22;19995;-69
2023/01/25 02:36:28;;;;;;;21.50;10.85;;;;;;;-140.72;100.00;53334.50;6272969;22;20008;-67
2023/01/25 02:39:02;;;;;;;18.10;11.60;;;;;;;-140.72;100.00;53352.78;6274470;22;20027;-68
2023/01/25 02:41:37;;;;;;;20.48;11.77;;;;;;;-140.72;100.00;53308.13;6272699;22;20046;-68
2023/01/25 02:44:07;;;;;;;17.20;10.98;;;;;;;-140.72;100.00;53344.66;6272658;22;19996;-67
2023/01/25 02:46:36;;;;;;;18.38;11.48;;;;;;;-140.72;100.00;53381.19;6273068;22;20008;-68
2023/01/25 02:49:02;;;;;;;23.60;14.10;;;;;;;-140.72;100.00;53342.63;6273182;22;19999;-69
2023/01/25 02:51:31;;;;;;;22.90;12.77;;;;;;;-140.72;100.00;53352.78;6272599;22;19999;-68
2023/01/25 02:53:57;;;;;;;22.48;12.25;;;;;;;-140.72;100.00;53330.44;6274233;22;19999;-68
2023/01/25 02:56:23;;;;;;;17.48;11.32;;;;;;;-140.72;100.00;53312.19;6273461;22;20007;-69
2023/01/25 02:58:48;;;;;;;26.95;14.20;;;;;;;-140.72;100.00;53348.72;6273993;22;20010;-69
2023/01/25 03:01:14;;;;;;;20.70;12.27;;;;;;;-140.72;100.00;53344.66;6272879;22;20065;-68
2023/01/25 03:03:40;;;;;;;20.48;13.07;;;;;;;-140.72;100.00;53364.97;6272587;22;20293;-67
2023/01/25 03:06:06;;;;;;;21.85;11.55;;;;;;;-140.72;100.00;53371.03;6273382;22;20002;-68
2023/01/25 03:08:32;;;;;;;26.13;12.90;;;;;;;-140.72;100.00;53381.19;6273553;22;19999;-69
2023/01/25 03:10:59;;;;;;;22.52;12.88;;;;;;;-140.72;100.00;53348.72;6272966;22;20086;-69
2023/01/25 03:13:25;;;;;;;23.00;12.65;;;;;;;-140.72;100.00;53367.00;6273161;22;20015;-68
2023/01/25 03:15:51;;;;;;;25.50;14.20;;;;;;;-140.72;100.00;53348.72;6273979;22;20414;-68
2023/01/25 03:18:16;;;;;;;23.58;11.95;;;;;;;-140.72;100.00;53326.41;6273031;22;20011;-68
2023/01/25 03:20:41;;;;;;;20.88;11.90;;;;;;;-140.72;100.00;53338.56;6273359;22;20428;-68
2023/01/25 03:23:07;;;;;;;27.75;14.73;;;;;;;-140.72;100.00;53328.41;6273659;22;20004;-68
2023/01/25 03:25:32;;;;;;;23.58;12.63;;;;;;;-140.72;100.00;53352.78;6272902;22;20449;-68
2023/01/25 03:27:57;;;;;;;25.55;13.57;;;;;;;-140.72;100.00;53377.13;6273501;22;20004;-67
2023/01/25 03:30:23;;;;;;;27.13;14.57;;;;;;;-140.72;100.00;53340.59;6273460;22;20066;-68
2023/01/25 03:32:49;;;;;;;21.27;11.07;;;;;;;-140.72;100.00;53356.84;6272882;22;20310;-67
2023/01/25 03:35:15;;;;;;;26.15;13.57;;;;;;;-140.72;100.00;53346.69;6271488;22;20012;-69
2023/01/25 03:37:40;;;;;;;20.38;11.55;;;;;;;-140.72;100.00;53364.97;6272251;22;20009;-68
2023/01/25 03:40:06;;;;;;;24.98;14.35;;;;;;;-140.72;100.00;53328.41;6270204;22;20054;-67
2023/01/25 03:42:32;;;;;;;36.13;12.40;;;;;;;-140.72;100.00;53377.13;6271657;22;19996;-68
2023/01/25 03:44:58;;;;;;;26.73;14.25;;;;;;;-140.72;100.00;53344.66;6272575;22;20038;-71
2023/01/25 03:47:23;;;;;;;23.13;11.93;;;;;;;-140.72;100.00;53300.00;6273101;22;19995;-69
2023/01/25 03:49:48;;;;;;;24.38;13.25;;;;;;;-140.72;100.00;53354.81;6273643;22;20015;-68
2023/01/25 03:52:14;;;;;;;23.52;13.20;;;;;;;-140.72;100.00;53348.72;6272033;22;20461;-68
2023/01/25 03:54:39;;;;;;;26.55;13.20;;;;;;;-140.72;100.00;53397.44;6273369;22;20041;-68
2023/01/25 03:57:04;;;;;;;25.65;14.52;;;;;;;-140.72;100.00;53369.00;6273630;22;20057;-68
2023/01/25 03:59:30;;;;;;;26.15;14.07;;;;;;;-140.72;100.00;53334.50;6272106;22;20406;-68
2023/01/25 04:01:56;;;;;;;26.35;13.65;;;;;;;-140.72;100.00;53340.59;6273161;22;20364;-69
2023/01/25 04:04:21;;;;;;;24.13;12.23;;;;;;;-140.72;100.00;53385.25;6272846;22;20027;-68
2023/01/25 04:06:46;;;;;;;24.38;12.25;;;;;;;-140.72;100.00;53383.22;6272027;22;20337;-68
2023/01/25 04:09:13;;;;;;;23.00;13.95;;;;;;;-140.72;100.00;53389.31;6272891;22;19995;-69
2023/01/25 04:11:39;;;;;;;25.63;13.85;;;;;;;-140.72;100.00;53369.00;6272844;22;19995;-68
2023/01/25 04:14:05;;;;;;;26.55;13.90;;;;;;;-140.72;100.00;53348.72;6272444;22;20003;-68
2023/01/25 04:16:30;;;;;;;26.70;14.98;;;;;;;-140.72;100.00;53371.03;6272869;22;20406;-70
2023/01/25 04:18:56;;;;;;;30.15;13.75;;;;;;;-140.72;100.00;53342.63;6273173;22;20345;-67
2023/01/25 04:21:21;;;;;;;25.08;12.65;;;;;;;-140.72;100.00;53379.16;6272343;22;20006;-68
2023/01/25 04:23:46;;;;;;;20.90;13.25;;;;;;;-140.72;100.00;53369.00;6272384;22;20423;-69
2023/01/25 04:26:14;;;;;;;24.17;14.02;;;;;;;-140.72;100.00;53338.56;6272585;22;20437;-70
2023/01/25 04:28:40;;;;;;;27.73;14.45;;;;;;;-140.72;100.00;53385.25;6272241;22;20011;-70
2023/01/25 04:31:05;;;;;;;25.92;14.27;;;;;;;-140.72;100.00;53342.63;6272094;22;20314;-69
2023/01/25 04:33:32;;;;;;;23.95;13.82;;;;;;;-140.72;100.00;53381.19;6273132;22;20045;-70
2023/01/25 04:35:57;;;;;;;21.67;12.20;;;;;;;-140.72;100.00;53379.16;6273390;22;20083;-67
2023/01/25 04:38:23;;;;;;;24.55;12.80;;;;;;;-140.72;100.00;53379.16;6274069;22;20022;-69
2023/01/25 04:40:49;;;;;;;25.27;13.57;;;;;;;-140.72;100.00;53385.25;6272776;22;20000;-69
2023/01/25 04:43:16;;;;;;;25.70;13.98;;;;;;;-140.72;100.00;53379.16;6273700;22;20003;-68
2023/01/25 04:45:41;;;;;;;37.95;15.35;;;;;;;-140.72;100.00;53371.03;6273283;22;20075;-70
2023/01/25 04:48:11;;;;;;;28.13;13.27;;;;;;;-140.72;100.00;53373.06;6273137;22;20482;-69
2023/01/25 04:50:40;;;;;;;30.25;12.20;;;;;;;-140.72;100.00;53358.88;6271752;22;20428;-69
2023/01/25 04:53:06;;;;;;;25.40;14.20;;;;;;;-140.72;100.00;53373.06;6273156;22;20074;-69
2023/01/25 04:55:33;;;;;;;26.05;13.25;;;;;;;-140.72;100.00;53356.84;6272476;22;20000;-70
2023/01/25 04:58:02;;;;;;;30.83;14.60;;;;;;;-140.72;100.00;53371.03;6273493;22;20006;-70
2023/01/25 05:00:28;;;;;;;32.13;12.75;;;;;;;-140.72;100.00;53377.13;6272036;22;20169;-70
2023/01/25 05:02:54;;;;;;;26.70;15.02;;;;;;;-140.72;100.00;53377.13;6271991;22;19995;-69
2023/01/25 05:05:19;;;;;;;23.48;12.43;;;;;;;-140.72;100.00;53391.34;6272368;22;19995;-70
2023/01/25 05:07:44;;;;;;;21.38;11.82;;;;;;;-140.72;100.00;53383.22;6272914;22;20019;-69
2023/01/25 05:10:10;;;;;;;25.42;12.15;;;;;;;-140.72;100.00;53360.91;6270577;22;20000;-70
2023/01/25 05:12:36;;;;;;;26.38;13.80;;;;;;;-140.72;100.00;53407.56;6272271;22;19996;-70
2023/01/25 05:15:01;;;;;;;27.02;11.63;;;;;;;-140.72;100.00;53348.72;6272056;22;19995;-68
2023/01/25 05:17:27;;;;;;;25.33;13.43;;;;;;;-140.72;100.00;53360.91;6271137;22;20074;-68
2023/01/25 05:19:52;;;;;;;27.15;12.68;;;;;;;-140.72;100.00;53342.63;6272627;22;20003;-69
2023/01/25 05:22:19;;;;;;;23.40;13.18;;;;;;;-140.72;100.00;53375.09;6272851;22;20007;-70
2023/01/25 05:24:46;;;;;;;21.25;12.13;;;;;;;-140.72;100.00;53383.22;6273640;22;20087;-70
2023/01/25 05:27:14;;;;;;;25.50;13.65;;;;;;;-140.72;100.00;53338.56;6248387;22;20016;-69
2023/01/25 05:29:42;;;;;;;24.73;13.05;;;;;;;-140.72;100.00;53383.22;6273800;22;20012;-69
2023/01/25 05:32:14;;;;;;;27.70;13.65;;;;;;;-140.72;100.00;53397.44;6273610;22;20056;-71
2023/01/25 05:34:40;;;;;;;27.52;14.05;;;;;;;-140.72;100.00;53336.53;6274352;22;19999;-69
2023/01/25 05:37:07;;;;;;;29.10;13.02;;;;;;;-140.72;100.00;53364.97;6274093;22;20078;-68
2023/01/25 05:39:32;;;;;;;24.75;11.30;;;;;;;-140.72;100.00;53387.28;6273183;22;20325;-69
2023/01/25 05:41:58;;;;;;;31.00;14.38;;;;;;;-140.72;100.00;53336.53;6274423;22;20003;-68
2023/01/25 05:44:23;;;;;;;23.80;13.48;;;;;;;-140.72;100.00;53340.59;6274176;22;20075;-69
2023/01/25 05:46:49;;;;;;;25.35;14.52;;;;;;;-140.72;100.00;53381.19;6273446;22;19995;-68
2023/01/25 05:49:15;;;;;;;30.80;14.43;;;;;;;-140.72;100.00;53393.38;6274222;22;19996;-69
2023/01/25 05:51:41;;;;;;;26.63;14.55;;;;;;;-140.72;100.00;53350.75;6273354;22;20000;-69
2023/01/25 05:54:08;;;;;;;25.42;13.52;;;;;;;-140.72;100.00;53348.72;6273634;22;20038;-70
2023/01/25 05:56:34;;;;;;;21.23;12.07;;;;;;;-140.72;100.00;53391.34;6274142;22;20007;-70
2023/01/25 05:59:01;;;;;;;20.92;11.68;;;;;;;-140.72;100.00;53373.06;6273586;22;20004;-69
2023/01/25 06:01:27;;;;;;;23.58;12.15;;;;;;;-140.72;100.00;53364.97;6273217;22;20045;-69
2023/01/25 06:03:52;;;;;;;23.15;12.30;;;;;;;-140.72;100.00;53367.00;6273072;22;20053;-70
2023/01/25 06:06:18;;;;;;;26.50;12.82;;;;;;;-140.72;100.00;53356.84;6273349;22;20083;-70
2023/01/25 06:08:44;;;;;;;30.30;13.63;;;;;;;-140.72;100.00;53348.72;6272874;22;20306;-70
2023/01/25 06:11:15;;;;;;;29.88;14.77;;;;;;;-140.72;100.00;53369.00;6274505;22;20028;-69
2023/01/25 06:13:41;;;;;;;26.00;11.07;;;;;;;-140.72;100.00;53346.69;6272685;22;19999;-69
2023/01/25 06:16:06;;;;;;;29.98;15.10;;;;;;;-140.72;100.00;53360.91;6273768;22;20071;-69
2023/01/25 06:18:34;;;;;;;24.92;12.23;;;;;;;-140.72;100.00;53407.56;6273392;22;20004;-69
2023/01/25 06:21:00;;;;;;;27.80;14.43;;;;;;;-140.72;100.00;53342.63;6273288;22;20004;-69
2023/01/25 06:23:25;;;;;;;21.20;13.23;;;;;;;-140.72;100.00;53399.47;6273968;22;20414;-69
2023/01/25 06:25:54;;;;;;;28.05;12.95;;;;;;;-140.72;100.00;53356.84;6274284;22;20007;-71
2023/01/25 06:28:19;;;;;;;28.52;13.32;;;;;;;-140.72;100.00;53328.41;6273791;22;20000;-69
2023/01/25 06:30:44;;;;;;;26.35;13.85;;;;;;;-140.72;100.00;53346.69;6273210;22;20361;-69
2023/01/25 06:33:10;;;;;;;30.30;13.35;;;;;;;-140.72;100.00;53375.09;6274356;22;20000;-69
2023/01/25 06:35:35;;;;;;;28.20;15.02;;;;;;;-140.72;100.00;53360.91;6272785;22;20272;-69
2023/01/25 06:38:01;;;;;;;26.60;13.60;;;;;;;-140.72;100.00;53340.59;6273318;22;20418;-69
2023/01/25 06:40:27;;;;;;;29.35;15.43;;;;;;;-140.72;100.00;53340.59;6274500;22;20405;-69
2023/01/25 06:42:56;;;;;;;30.23;14.20;;;;;;;-140.72;100.00;53377.13;6273544;22;19995;-69
2023/01/25 06:45:21;;;;;;;25.17;13.75;;;;;;;-140.72;100.00;53387.28;6274150;22;20070;-69
2023/01/25 06:47:48;;;;;;;35.50;13.75;;;;;;;-140.72;100.00;53399.47;6272967;22;20359;-69
2023/01/25 06:50:13;;;;;;;25.70;13.57;;;;;;;-140.72;100.00;53344.66;6273353;22;19999;-69
2023/01/25 06:52:39;;;;;;;28.45;15.13;;;;;;;-140.72;100.00;53373.06;6273360;22;20318;-68
2023/01/25 06:55:12;;;;;;;27.95;14.73;;;;;;;-140.72;100.00;53336.53;6272751;22;20000;-69
2023/01/25 06:57:37;;;;;;;30.70;15.77;;;;;;;-140.72;100.00;53369.00;6273536;22;19995;-70
2023/01/25 07:00:03;;;;;;;25.15;14.05;;;;;;;-140.72;100.00;53375.09;6272400;22;20322;-69
2023/01/25 07:02:29;;;;;;;35.88;15.75;;;;;;;-140.72;100.00;53407.56;6271885;22;20441;-69
2023/01/25 07:04:54;;;;;;;27.38;14.15;;;;;;;-140.72;100.00;53397.44;6272281;22;20003;-69
2023/01/25 07:07:19;;;;;;;25.45;12.88;;;;;;;-140.72;100.00;53356.84;6272856;22;20002;-69
2023/01/25 07:09:45;;;;;;;29.10;14.73;;;;;;;-140.72;100.00;53373.06;6271686;22;20008;-70
2023/01/25 07:12:10;;;;;;;28.65;13.98;;;;;;;-140.72;100.00;53438.03;6273338;22;20034;-69
2023/01/25 07:14:36;;;;;;;26.88;15.20;;;;;;;-140.72;100.00;53352.78;6271885;22;20003;-68
2023/01/25 07:17:01;;;;;;;30.13;14.43;;;;;;;-140.72;100.00;53367.00;6272669;22;19996;-69
2023/01/25 07:19:26;;;;;;;28.63;13.15;;;;;;;-140.72;100.00;53340.59;6272625;22;20014;-69
2023/01/25 07:21:53;;;;;;;32.67;16.73;;;;;;;-140.72;100.00;53405.56;6273837;22;20139;-69
2023/01/25 07:24:19;;;;;;;26.75;14.75;;;;;;;-140.72;100.00;53381.19;6270654;22;20113;-68
2023/01/25 07:26:46;;;;;;;29.13;14.05;;;;;;;-140.72;100.00;53377.13;6270862;22;20011;-69
2023/01/25 07:29:14;;;;;;;27.08;13.25;;;;;;;-140.72;100.00;53401.50;6270629;22;20438;-69
2023/01/25 07:31:42;;;;;;;26.58;14.38;;;;;;;-140.72;100.00;53360.91;6269936;22;20024;-70
2023/01/25 07:34:09;;;;;;;26.48;13.57;;;;;;;-140.72;100.00;53338.56;6271679;22;20004;-68
2023/01/25 07:36:36;;;;;;;42.28;14.50;;;;;;;-140.72;100.00;53356.84;6271102;22;20007;-68
2023/01/25 07:39:01;;;;;;;27.67;15.60;;;;;;;-140.72;100.00;53369.00;6272026;22;20099;-69
2023/01/25 07:41:27;;;;;;;30.40;16.27;;;;;;;-140.72;100.00;53340.59;6272747;22;20031;-69
2023/01/25 07:43:52;;;;;;;27.23;14.57;;;;;;;-140.72;100.00;53383.22;6272657;22;19995;-69
2023/01/25 07:46:18;;;;;;;35.55;15.48;;;;;;;-140.72;100.00;53377.13;6271992;22;20000;-68
2023/01/25 07:48:48;;;;;;;32.80;14.13;;;;;;;-140.72;100.00;53352.78;6271507;22;20298;-69
2023/01/25 07:51:25;;;;;;;30.95;14.95;;;;;;;-140.72;100.00;53399.47;6271148;22;20145;-70
2023/01/25 07:53:56;;;;;;;29.02;14.82;;;;;;;-140.72;100.00;53358.88;6271291;22;19999;-69
2023/01/25 07:56:27;;;;;;;29.27;14.93;;;;;;;-140.72;100.00;53360.91;6272537;22;20083;-70
2023/01/25 07:58:57;;;;;;;29.50;14.73;;;;;;;-140.72;100.00;53393.38;6271565;22;19999;-68
2023/01/25 08:01:28;;;;;;;27.35;12.98;;;;;;;-140.72;100.00;53362.94;6273503;22;20000;-70
2023/01/25 08:03:57;;;;;;;26.77;13.48;;;;;;;-140.72;100.00;53389.31;6272983;22;20010;-68
2023/01/25 08:06:30;;;;;;;29.55;13.82;;;;;;;-140.72;100.00;53367.00;6271685;22;20410;-68
2023/01/25 08:08:57;;;;;;;27.05;12.60;;;;;;;-140.72;100.00;53324.38;6273191;22;20083;-68
2023/01/25 08:11:26;;;;;;;29.50;14.88;;;;;;;-140.72;100.00;53393.38;6272611;22;20366;-67
2023/01/25 08:13:51;;;;;;;35.08;17.08;;;;;;;-140.72;100.00;53364.97;6272138;22;20007;-68
2023/01/25 08:16:19;;;;;;;28.15;15.38;;;;;;;-140.72;100.00;53356.84;6272578;22;20065;-70
2023/01/25 08:18:53;;;;;;;28.88;15.00;;;;;;;-140.72;100.00;53342.63;6271765;22;20000;-70
2023/01/25 08:21:19;;;;;;;30.00;13.75;;;;;;;-140.72;100.00;53364.97;6271770;22;20003;-68
2023/01/25 08:23:45;;;;;;;37.75;18.27;;;;;;;-140.72;100.00;53352.78;6272775;22;20000;-67
2023/01/25 08:26:13;;;;;;;29.27;15.48;;;;;;;-140.72;100.00;53352.78;6272863;22;20031;-68
2023/01/25 08:28:38;;;;;;;31.35;14.38;;;;;;;-140.72;100.00;53322.34;6271975;22;20039;-68
2023/01/25 08:31:25;;;;;;;28.30;14.05;;;;;;;-140.72;100.00;53352.78;6272585;22;20011;-68
2023/01/25 08:33:52;;;;;;;30.67;14.32;;;;;;;-140.72;100.00;53399.47;6272298;22;20461;-70
2023/01/25 08:36:18;;;;;;;29.10;14.27;;;;;;;-140.72;100.00;53348.72;6272200;22;20098;-71
2023/01/25 08:38:45;;;;;;;28.00;14.32;;;;;;;-140.72;100.00;53360.91;6273019;22;20338;-69
2023/01/25 08:41:14;;;;;;;31.58;15.88;;;;;;;-140.72;100.00;53352.78;6271884;22;20348;-68
2023/01/25 08:43:40;;;;;;;36.85;15.65;;;;;;;-140.72;100.00;53350.75;6272057;22;19996;-68
2023/01/25 08:46:06;;;;;;;36.65;16.27;;;;;;;-140.72;100.00;53356.84;6272470;22;20473;-67
2023/01/25 08:48:32;;;;;;;32.67;14.73;;;;;;;-140.72;100.00;53369.00;6271251;22;20295;-68
2023/01/25 08:50:58;;;;;;;30.63;15.98;;;;;;;-140.72;100.00;53344.66;6273427;22;20305;-68
2023/01/25 08:53:23;;;;;;;32.97;14.80;;;;;;;-140.72;100.00;53330.44;6272585;22;20003;-69
2023/01/25 08:55:49;;;;;;;29.92;15.65;;;;;;;-140.72;100.00;53324.38;6268080;22;20448;-68
2023/01/25 08:58:18;;;;;;;34.00;17.33;;;;;;;-140.72;100.00;53344.66;6271664;22;19999;-68
2023/01/25 09:00:44;;;;;;;36.37;15.70;;;;;;;-140.72;100.00;53395.41;6270920;22;20038;-68
2023/01/25 09:03:10;;;;;;;34.28;17.10;;;;;;;-140.72;100.00;53354.81;6271279;22;20014;-68
2023/01/25 09:05:37;;;;;;;21.80;11.95;;;;;;;-140.72;100.00;53340.59;6271258;22;20002;-68
2023/01/25 09:08:04;;;;;;;26.17;13.23;;;;;;;-140.72;100.00;53356.84;6271892;22;20003;-70
2023/01/25 09:10:30;;;;;;;28.70;14.25;;;;;;;-140.72;100.00;53332.47;6270386;22;20437;-69
2023/01/25 09:12:55;;;;;;;27.35;15.50;;;;;;;-140.72;100.00;53332.47;6271973;22;20003;-68
2023/01/25 09:15:24;;;;;;;29.15;14.30;;;;;;;-140.72;100.00;53340.59;6271972;22;20003;-68
2023/01/25 09:17:50;;;;;;;37.40;15.52;;;;;;;-140.72;100.00;53373.06;6270804;22;20027;-70
2023/01/25 09:20:16;;;;;;;37.38;16.25;;;;;;;-140.72;100.00;53358.88;6272221;22;20079;-68
2023/01/25 09:22:41;;;;;;;36.47;17.33;;;;;;;-140.72;100.00;53381.19;6270107;22;20422;-68
2023/01/25 09:25:07;;;;;;;30.92;13.55;;;;;;;-140.72;100.00;53364.97;6272584;22;20034;-68
2023/01/25 09:27:32;;;;;;;32.53;15.32;;;;;;;-140.72;100.00;53385.25;6272786;22;19999;-68
2023/01/25 09:29:58;;;;;;;29.42;15.43;;;;;;;-140.72;100.00;53364.97;6272384;22;20413;-69
2023/01/25 09:32:23;;;;;;;32.67;15.55;;;;;;;-140.72;100.00;53358.88;6272848;22;19996;-70
2023/01/25 09:34:48;;;;;;;29.85;17.50;;;;;;;-140.72;100.00;53360.91;6273319;22;20567;-68
2023/01/25 09:37:14;;;;;;;31.73;16.05;;;;;;;-140.72;100.00;53352.78;6272566;22;20019;-69
2023/01/25 09:39:39;;;;;;;25.40;13.93;;;;;;;-140.72;100.00;53360.91;6273093;22;19995;-67
2023/01/25 09:42:26;;;;;;;36.33;16.25;;;;;;;-140.72;100.00;53352.78;6272142;22;20318;-68
2023/01/25 09:45:40;;;;;;;29.23;13.63;;;;;;;-140.72;100.00;53369.00;6271782;22;19996;-70
2023/01/25 09:48:48;;;;;;;26.65;13.73;;;;;;;-140.72;100.00;53371.03;6244520;22;20011;-68
2023/01/25 09:51:39;;;;;;;25.67;14.88;;;;;;;-140.72;100.00;53369.00;6148304;23;20085;-68
2023/01/25 09:54:08;;;;;;;29.50;16.80;;;;;;;-140.72;100.00;53320.31;6272977;22;20098;-68
2023/01/25 09:56:35;;;;;;;30.63;14.10;;;;;;;-140.72;100.00;53371.03;6272875;22;19996;-68
2023/01/25 09:59:14;;;;;;;30.58;14.43;;;;;;;-140.72;100.00;53342.63;6271564;22;19995;-67
2023/01/25 10:01:45;;;;;;;32.45;14.40;;;;;;;-140.72;100.00;53383.22;6272482;22;20000;-69
2023/01/25 10:04:13;;;;;;;32.90;15.07;;;;;;;-140.72;100.00;53314.22;6272467;22;20000;-70
2023/01/25 10:06:41;;;;;;;33.15;16.08;;;;;;;-140.72;100.00;53373.06;6271350;22;20061;-68
2023/01/25 10:09:25;;;;;;;34.78;16.25;;;;;;;-140.72;100.00;53348.72;6273333;22;20004;-68
2023/01/25 10:11:50;;;;;;;40.70;16.13;;;;;;;-140.72;100.00;53326.41;6273213;22;20007;-69
2023/01/25 10:14:17;;;;;;;39.72;18.50;;;;;;;-140.72;100.00;53306.09;6274553;22;20134;-68
2023/01/25 10:16:49;;;;;;;37.00;15.75;;;;;;;-140.72;100.00;53320.31;6273264;22;19999;-68
2023/01/25 10:19:31;;;;;;;43.78;17.55;;;;;;;-140.72;100.00;53350.75;6273983;22;20350;-68
2023/01/25 10:22:10;;;;;;;33.10;16.92;;;;;;;-140.72;100.00;53383.22;6268482;22;20011;-69
2023/01/25 10:24:41;;;;;;;34.83;17.25;;;;;;;-140.72;100.00;53346.69;6272786;22;20018;-69
2023/01/25 10:27:25;;;;;;;38.75;15.32;;;;;;;-140.72;100.00;53352.78;6272177;22;20011;-68
2023/01/25 10:29:55;;;;;;;29.77;14.63;;;;;;;-140.72;100.00;53375.09;6273532;22;20007;-68
2023/01/25 10:32:33;;;;;;;29.42;16.08;;;;;;;-140.72;100.00;53377.13;6274550;22;20006;-68
2023/01/25 10:35:20;;;;;;;35.90;17.23;;;;;;;-140.72;100.00;53375.09;6273022;22;19995;-70
2023/01/25 10:37:46;;;;;;;32.45;16.67;;;;;;;-140.72;100.00;53328.41;6273533;22;20019;-70
2023/01/25 10:40:18;;;;;;;33.63;16.13;;;;;;;-140.72;100.00;53316.25;6273669;22;20629;-68
2023/01/25 10:42:50;;;;;;;38.15;16.83;;;;;;;-140.72;100.00;53314.22;6273786;22;20152;-70
2023/01/25 10:45:16;;;;;;;31.33;16.40;;;;;;;-140.72;100.00;53346.69;6273908;22;20002;-68
2023/01/25 10:47:47;;;;;;;29.58;16.20;;;;;;;-140.72;100.00;53348.72;6273158;22;20003;-68
2023/01/25 10:50:49;;;;;;;38.60;17.73;;;;;;;-140.72;100.00;53340.59;6274641;22;19995;-67
2023/01/25 10:53:24;;;;;;;40.70;16.73;;;;;;;-140.72;100.00;53381.19;6211171;22;20003;-69
2023/01/25 10:56:12;;;;;;;32.05;14.82;;;;;;;-140.72;100.00;53332.47;6274933;22;19999;-68
2023/01/25 10:58:46;;;;;;;36.78;17.45;;;;;;;-140.72;100.00;53316.25;6274795;22;20070;-69
2023/01/25 11:01:27;;;;;;;32.90;17.08;;;;;;;-140.72;100.00;53348.72;6273941;22;19996;-70